createdAt,value
2022-11-01T00:00:37.246Z,98608.00
2022-11-01T00:03:07.264Z,98603.00
2022-11-01T00:05:37.125Z,98601.00
2022-11-01T00:08:07.599Z,98600.00
2022-11-01T00:10:37.465Z,98597.00
2022-11-01T00:13:09.929Z,98592.00
2022-11-01T00:15:40.026Z,98590.00
2022-11-01T00:18:09.851Z,98594.00
2022-11-01T00:20:39.692Z,98585.00
2022-11-01T00:23:09.558Z,98588.00
2022-11-01T00:25:39.634Z,98583.00
2022-11-01T00:28:12.094Z,98580.00
2022-11-01T00:30:42.289Z,98577.00
2022-11-01T00:33:12.333Z,98571.00
2022-11-01T00:35:42.396Z,98570.00
2022-11-01T00:38:12.791Z,98575.00
2022-11-01T00:40:42.692Z,98572.00
2022-11-01T00:43:16.215Z,98562.00
2022-11-01T00:45:47.076Z,98563.00
2022-11-01T00:48:16.959Z,98560.00
2022-11-01T00:50:46.791Z,98566.00
2022-11-01T00:53:16.840Z,98547.00
2022-11-01T00:55:46.670Z,98553.00
2022-11-01T00:58:19.163Z,98547.00
2022-11-01T01:00:50.892Z,98546.00
2022-11-01T01:03:20.899Z,98556.00
2022-11-01T01:05:51.790Z,98546.00
2022-11-01T01:08:21.900Z,98538.00
2022-11-01T01:10:52.343Z,98537.00
2022-11-01T01:13:24.999Z,98544.00
2022-11-01T01:15:54.828Z,98536.00
2022-11-01T01:18:24.769Z,98527.00
2022-11-01T01:20:56.554Z,98540.00
2022-11-01T01:23:26.389Z,98528.00
2022-11-01T01:25:56.238Z,98526.00
2022-11-01T01:28:28.820Z,98535.00
2022-11-01T01:30:58.688Z,98523.00
2022-11-01T01:33:28.729Z,98514.00
2022-11-01T01:35:58.627Z,98526.00
2022-11-01T01:38:28.449Z,98530.00
2022-11-01T01:41:18.367Z,98514.00
2022-11-01T01:43:51.023Z,98514.00
2022-11-01T01:46:20.896Z,98507.00
2022-11-01T01:48:53.677Z,98500.00
2022-11-01T01:51:26.531Z,98497.00
2022-11-01T01:53:58.520Z,98493.00
2022-11-01T01:56:32.550Z,98486.00
2022-11-01T01:59:07.576Z,98498.00
2022-11-01T02:01:41.320Z,98483.00
2022-11-01T02:04:19.470Z,98483.00
2022-11-01T02:06:50.896Z,98479.00
2022-11-01T02:09:21.475Z,98483.00
2022-11-01T02:11:51.330Z,98477.00
2022-11-01T02:14:25.026Z,98475.00
2022-11-01T02:16:58.020Z,98478.00
2022-11-01T02:19:59.826Z,98477.00
2022-11-01T02:22:41.896Z,98474.00
2022-11-01T02:25:34.051Z,98477.00
2022-11-01T02:28:20.449Z,98477.00
2022-11-01T02:30:59.409Z,98476.00
2022-11-01T02:33:34.031Z,98467.00
2022-11-01T02:36:06.885Z,98484.00
2022-11-01T02:38:40.629Z,98476.00
2022-11-01T02:41:14.210Z,98473.00
2022-11-01T02:43:48.877Z,98468.00
2022-11-01T02:46:32.154Z,98475.00
2022-11-01T02:49:05.760Z,98466.00
2022-11-01T02:51:36.311Z,98464.00
2022-11-01T02:54:10.725Z,98448.00
2022-11-01T02:56:41.759Z,98458.00
2022-11-01T02:59:17.967Z,98459.00
2022-11-01T03:01:53.907Z,98449.00
2022-11-01T03:04:26.500Z,98448.00
2022-11-01T03:07:01.041Z,98444.00
2022-11-01T03:09:31.281Z,98435.00
2022-11-01T03:12:04.984Z,98438.00
2022-11-01T03:14:38.307Z,98451.00
2022-11-01T03:17:12.035Z,98444.00
2022-11-01T03:19:47.255Z,98453.00
2022-11-01T03:22:20.017Z,98450.00
2022-11-01T03:24:53.447Z,98450.00
2022-11-01T03:27:32.665Z,98454.00
2022-11-01T03:30:07.150Z,98454.00
2022-11-01T03:32:41.314Z,98454.00
2022-11-01T03:35:19.662Z,98453.00
2022-11-01T03:37:50.251Z,98447.00
2022-11-01T03:40:21.217Z,98443.00
2022-11-01T03:42:52.462Z,98442.00
2022-11-01T03:45:25.184Z,98438.00
2022-11-01T03:47:55.323Z,98445.00
2022-11-01T03:50:29.279Z,98454.00
2022-11-01T03:52:59.371Z,98453.00
2022-11-01T03:55:29.255Z,98449.00
2022-11-01T03:58:00.959Z,98444.00
2022-11-01T04:00:33.117Z,98431.00
2022-11-01T04:03:03.896Z,98448.00
2022-11-01T04:05:37.907Z,98450.00
2022-11-01T04:08:08.677Z,98453.00
2022-11-01T04:10:38.578Z,98439.00
2022-11-01T04:13:08.480Z,98436.00
2022-11-01T04:15:50.725Z,98434.00
2022-11-01T04:18:35.393Z,98427.00
2022-11-01T04:21:09.682Z,98418.00
2022-11-01T04:23:39.677Z,98417.00
2022-11-01T04:26:10.132Z,98404.00
2022-11-01T04:28:39.992Z,98418.00
2022-11-01T04:31:10.255Z,98405.00
2022-11-01T04:33:40.098Z,98405.00
2022-11-01T04:36:13.076Z,98415.00
2022-11-01T04:38:42.953Z,98416.00
2022-11-01T04:41:12.785Z,98413.00
2022-11-01T04:43:42.665Z,98427.00
2022-11-01T04:46:12.521Z,98418.00
2022-11-01T04:48:42.353Z,98414.00
2022-11-01T04:51:14.864Z,98402.00
2022-11-01T04:53:44.739Z,98399.00
2022-11-01T04:56:16.329Z,98396.00
2022-11-01T04:58:46.873Z,98396.00
2022-11-01T05:01:17.297Z,98400.00
2022-11-01T05:03:47.230Z,98387.00
2022-11-01T05:06:19.745Z,98395.00
2022-11-01T05:08:49.649Z,98396.00
2022-11-01T05:11:25.524Z,98405.00
2022-11-01T05:13:55.667Z,98408.00
2022-11-01T05:16:25.563Z,98410.00
2022-11-01T05:18:55.478Z,98400.00
2022-11-01T05:21:27.881Z,98402.00
2022-11-01T05:23:57.761Z,98402.00
2022-11-01T05:26:27.875Z,98406.00
2022-11-01T05:28:57.754Z,98405.00
2022-11-01T05:31:27.612Z,98398.00
2022-11-01T05:33:57.526Z,98397.00
2022-11-01T05:36:29.985Z,98397.00
2022-11-01T05:39:00.122Z,98395.00
2022-11-01T05:41:30.058Z,98402.00
2022-11-01T05:44:00.053Z,98407.00
2022-11-01T05:46:30.122Z,98402.00
2022-11-01T05:49:00.007Z,98412.00
2022-11-01T05:51:32.469Z,98401.00
2022-11-01T05:54:02.306Z,98412.00
2022-11-01T05:56:32.180Z,98412.00
2022-11-01T05:59:02.369Z,98410.00
2022-11-01T06:01:32.298Z,98423.00
2022-11-01T06:04:02.800Z,98427.00
2022-11-01T06:06:35.581Z,98407.00
2022-11-01T06:09:05.524Z,98403.00
2022-11-01T06:11:39.176Z,98412.00
2022-11-01T06:14:13.601Z,98414.00
2022-11-01T06:16:43.572Z,98418.00
2022-11-01T06:19:13.642Z,98419.00
2022-11-01T06:21:46.165Z,98422.00
2022-11-01T06:24:16.403Z,98426.00
2022-11-01T06:26:46.289Z,98424.00
2022-11-01T06:29:16.333Z,98432.00
2022-11-01T06:31:46.161Z,98426.00
2022-11-01T06:34:16.013Z,98413.00
2022-11-01T06:36:49.155Z,98419.00
2022-11-01T06:39:19.012Z,98420.00
2022-11-01T06:41:48.885Z,98436.00
2022-11-01T06:44:18.733Z,98427.00
2022-11-01T06:46:48.601Z,98440.00
2022-11-01T06:49:19.341Z,98423.00
2022-11-01T06:51:52.065Z,98427.00
2022-11-01T06:54:21.912Z,98423.00
2022-11-01T06:56:51.829Z,98415.00
2022-11-01T06:59:21.676Z,98426.00
2022-11-01T07:01:52.250Z,98439.00
2022-11-01T07:04:22.245Z,98434.00
2022-11-01T07:06:54.717Z,98452.00
2022-11-01T07:09:24.777Z,98447.00
2022-11-01T07:11:54.605Z,98457.00
2022-11-01T07:14:24.467Z,98451.00
2022-11-01T07:16:54.346Z,98450.00
2022-11-01T07:19:24.464Z,98457.00
2022-11-01T07:21:56.922Z,98449.00
2022-11-01T07:24:26.799Z,98451.00
2022-11-01T07:26:56.685Z,98447.00
2022-11-01T07:29:26.592Z,98454.00
2022-11-01T07:31:56.613Z,98459.00
2022-11-01T07:34:26.503Z,98457.00
2022-11-01T07:36:58.982Z,98460.00
2022-11-01T07:39:28.842Z,98466.00
2022-11-01T07:41:58.821Z,98464.00
2022-11-01T07:44:28.751Z,98475.00
2022-11-01T07:46:58.617Z,98474.00
2022-11-01T07:49:28.532Z,98495.00
2022-11-01T07:52:02.970Z,98495.00
2022-11-01T07:54:33.023Z,98484.00
2022-11-01T07:57:02.894Z,98470.00
2022-11-01T07:59:32.750Z,98456.00
2022-11-01T08:02:05.488Z,98468.00
2022-11-01T08:04:37.926Z,98469.00
2022-11-01T08:07:10.500Z,98470.00
2022-11-01T08:09:40.359Z,98473.00
2022-11-01T08:12:10.462Z,98482.00
2022-11-01T08:14:40.317Z,98487.00
2022-11-01T08:17:10.908Z,98485.00
2022-11-01T08:19:40.749Z,98480.00
2022-11-01T08:22:13.221Z,98488.00
2022-11-01T08:24:43.447Z,98485.00
2022-11-01T08:27:13.303Z,98488.00
2022-11-01T08:29:43.611Z,98491.00
2022-11-01T08:32:13.546Z,98490.00
2022-11-01T08:34:43.423Z,98493.00
2022-11-01T08:37:15.882Z,98487.00
2022-11-01T08:39:45.768Z,98492.00
2022-11-01T08:42:16.023Z,98486.00
2022-11-01T08:44:46.048Z,98491.00
2022-11-01T08:47:16.019Z,98488.00
2022-11-01T08:49:45.888Z,98487.00
2022-11-01T08:52:18.362Z,98493.00
2022-11-01T08:54:48.232Z,98499.00
2022-11-01T08:57:18.219Z,98495.00
2022-11-01T08:59:48.105Z,98478.00
2022-11-01T09:02:18.066Z,98489.00
2022-11-01T09:04:48.153Z,98490.00
2022-11-01T09:07:21.121Z,98491.00
2022-11-01T09:09:50.991Z,98486.00
2022-11-01T09:12:24.581Z,98490.00
2022-11-01T09:14:54.816Z,98496.00
2022-11-01T09:17:24.653Z,98506.00
2022-11-01T09:19:54.492Z,98502.00
2022-11-01T09:22:26.959Z,98519.00
2022-11-01T09:24:58.832Z,98526.00
2022-11-01T09:27:28.737Z,98523.00
2022-11-01T09:29:58.583Z,98528.00
2022-11-01T09:32:30.698Z,98529.00
2022-11-01T09:35:00.823Z,98534.00
2022-11-01T09:37:33.266Z,98547.00
2022-11-01T09:40:03.484Z,98540.00
2022-11-01T09:42:36.993Z,98542.00
2022-11-01T09:45:10.191Z,98547.00
2022-11-01T09:47:41.702Z,98544.00
2022-11-01T09:50:20.552Z,98555.00
2022-11-01T09:52:53.484Z,98554.00
2022-11-01T09:55:27.816Z,98552.00
2022-11-01T09:58:01.617Z,98539.00
2022-11-01T10:00:37.791Z,98547.00
2022-11-01T10:03:39.191Z,98548.00
2022-11-01T10:06:15.583Z,98549.00
2022-11-01T10:08:57.976Z,98560.00
2022-11-01T10:11:50.413Z,98556.00
2022-11-01T10:14:33.516Z,98550.00
2022-11-01T10:17:09.877Z,98540.00
2022-11-01T10:19:40.697Z,98538.00
2022-11-01T10:22:15.624Z,98548.00
2022-11-01T10:24:50.930Z,98548.00
2022-11-01T10:27:25.642Z,98548.00
2022-11-01T10:30:00.631Z,98553.00
2022-11-01T10:32:35.729Z,98555.00
2022-11-01T10:35:09.666Z,98545.00
2022-11-01T10:37:52.364Z,98558.00
2022-11-01T10:40:38.833Z,98557.00
2022-11-01T10:43:15.030Z,98559.00
2022-11-01T10:45:47.703Z,98562.00
2022-11-01T10:48:22.611Z,98569.00
2022-11-01T10:50:53.639Z,98567.00
2022-11-01T10:53:24.172Z,98572.00
2022-11-01T10:55:59.780Z,98583.00
2022-11-01T10:58:36.240Z,98586.00
2022-11-01T11:01:08.442Z,98592.00
2022-11-01T11:03:38.866Z,98597.00
2022-11-01T11:06:12.343Z,98597.00
2022-11-01T11:08:43.318Z,98591.00
2022-11-01T11:11:18.164Z,98601.00
2022-11-01T11:13:50.827Z,98596.00
2022-11-01T11:16:26.943Z,98596.00
2022-11-01T11:19:04.210Z,98591.00
2022-11-01T11:21:37.479Z,98584.00
2022-11-01T11:24:07.829Z,98581.00
2022-11-01T11:26:44.925Z,98582.00
2022-11-01T11:29:36.391Z,98586.00
2022-11-01T11:32:07.704Z,98586.00
2022-11-01T11:34:39.314Z,98595.00
2022-11-01T11:37:11.751Z,98606.00
2022-11-01T11:39:42.512Z,98606.00
2022-11-01T11:42:19.624Z,98599.00
2022-11-01T11:44:53.853Z,98595.00
2022-11-01T11:47:28.322Z,98596.00
2022-11-01T11:50:00.765Z,98602.00
2022-11-01T11:52:38.494Z,98611.00
2022-11-01T11:55:09.835Z,98609.00
2022-11-01T11:57:53.926Z,98606.00
2022-11-01T12:00:26.101Z,98613.00
2022-11-01T12:02:56.115Z,98613.00
2022-11-01T12:05:28.829Z,98614.00
2022-11-01T12:07:59.892Z,98618.00
2022-11-01T12:10:35.595Z,98615.00
2022-11-01T12:13:26.653Z,98614.00
2022-11-01T12:16:17.729Z,98612.00
2022-11-01T12:18:55.095Z,98612.00
2022-11-01T12:21:28.557Z,98607.00
2022-11-01T12:24:04.292Z,98606.00
2022-11-01T12:26:36.171Z,98608.00
2022-11-01T12:29:18.297Z,98615.00
2022-11-01T12:31:48.202Z,98612.00
2022-11-01T12:34:22.482Z,98618.00
2022-11-01T12:36:58.253Z,98623.00
2022-11-01T12:39:36.894Z,98628.00
2022-11-01T12:42:07.593Z,98627.00
2022-11-01T12:44:42.094Z,98636.00
2022-11-01T12:47:17.524Z,98628.00
2022-11-01T12:49:50.925Z,98623.00
2022-11-01T12:52:28.776Z,98629.00
2022-11-01T12:55:04.776Z,98636.00
2022-11-01T12:57:35.539Z,98634.00
2022-11-01T13:00:09.424Z,98635.00
2022-11-01T13:02:48.505Z,98639.00
2022-11-01T13:05:19.313Z,98636.00
2022-11-01T13:07:58.869Z,98644.00
2022-11-01T13:10:34.357Z,98635.00
2022-11-01T13:13:14.134Z,98642.00
2022-11-01T13:15:55.545Z,98634.00
2022-11-01T13:18:33.518Z,98648.00
2022-11-01T13:21:08.620Z,98652.00
2022-11-01T13:23:40.230Z,98661.00
2022-11-01T13:26:16.161Z,98652.00
2022-11-01T13:28:58.118Z,98656.00
2022-11-01T13:31:45.567Z,98659.00
2022-11-01T13:34:30.772Z,98660.00
2022-11-01T13:37:07.224Z,98650.00
2022-11-01T13:39:46.198Z,98654.00
2022-11-01T13:42:17.641Z,98656.00
2022-11-01T13:44:50.167Z,98652.00
2022-11-01T13:47:42.927Z,98664.00
2022-11-01T13:50:34.030Z,98658.00
2022-11-01T13:53:07.354Z,98662.00
2022-11-01T13:55:42.498Z,98659.00
2022-11-01T13:58:17.341Z,98656.00
2022-11-01T14:00:49.529Z,98656.00
2022-11-01T14:03:27.864Z,98660.00
2022-11-01T14:09:33.193Z,98666.00
2022-11-01T14:12:15.048Z,98666.00
2022-11-01T14:14:56.972Z,98669.00
2022-11-01T14:17:56.444Z,98667.00
2022-11-01T14:20:50.689Z,98673.00
2022-11-01T14:23:55.793Z,98678.00
2022-11-01T14:26:41.079Z,98678.00
2022-11-01T14:29:15.241Z,98682.00
2022-11-01T14:31:48.029Z,98675.00
2022-11-01T14:34:32.963Z,98683.00
2022-11-01T14:37:14.785Z,98679.00
2022-11-01T14:39:47.225Z,98669.00
2022-11-01T14:42:23.100Z,98665.00
2022-11-01T14:44:54.869Z,98664.00
2022-11-01T14:47:34.744Z,98668.00
2022-11-01T14:50:08.065Z,98679.00
2022-11-01T14:52:44.557Z,98677.00
2022-11-01T14:55:19.753Z,98692.00
2022-11-01T14:57:49.696Z,98688.00
2022-11-01T15:00:28.761Z,98685.00
2022-11-01T15:05:30.099Z,98682.00
2022-11-01T15:08:03.029Z,98682.00
2022-11-01T15:10:43.455Z,98681.00
2022-11-01T15:13:18.107Z,98686.00
2022-11-01T15:15:54.433Z,98691.00
2022-11-01T15:18:24.344Z,98697.00
2022-11-01T15:20:55.635Z,98700.00
2022-11-01T15:23:31.895Z,98713.00
2022-11-01T15:26:04.448Z,98717.00
2022-11-01T15:28:39.582Z,98712.00
2022-11-01T15:31:10.098Z,98709.00
2022-11-01T15:33:40.460Z,98716.00
2022-11-01T15:36:20.845Z,98716.00
2022-11-01T15:38:57.571Z,98718.00
2022-11-01T15:41:31.177Z,98722.00
2022-11-01T15:44:02.412Z,98731.00
2022-11-01T15:46:36.278Z,98734.00
2022-11-01T15:49:09.283Z,98720.00
2022-11-01T15:51:43.064Z,98730.00
2022-11-01T15:54:26.706Z,98729.00
2022-11-01T15:57:01.346Z,98738.00
2022-11-01T15:59:35.558Z,98722.00
2022-11-01T16:02:07.263Z,98724.00
2022-11-01T16:04:44.468Z,98728.00
2022-11-01T16:07:16.740Z,98735.00
2022-11-01T16:09:51.014Z,98730.00
2022-11-01T16:12:22.968Z,98737.00
2022-11-01T16:14:58.698Z,98734.00
2022-11-01T16:17:35.155Z,98734.00
2022-11-01T16:20:05.423Z,98742.00
2022-11-01T16:22:40.364Z,98743.00
2022-11-01T16:25:24.449Z,98746.00
2022-11-01T16:28:00.676Z,98736.00
2022-11-01T16:30:43.038Z,98745.00
2022-11-01T16:33:20.717Z,98738.00
2022-11-01T16:35:51.599Z,98748.00
2022-11-01T16:38:44.216Z,98755.00
2022-11-01T16:41:22.366Z,98763.00
2022-11-01T16:43:55.599Z,98770.00
2022-11-01T16:46:27.058Z,98771.00
2022-11-01T16:48:58.484Z,98770.00
2022-11-01T16:51:29.630Z,98767.00
2022-11-01T16:54:00.516Z,98774.00
2022-11-01T16:56:37.391Z,98770.00
2022-11-01T16:59:10.039Z,98772.00
2022-11-01T17:01:40.961Z,98777.00
2022-11-01T17:04:13.627Z,98778.00
2022-11-01T17:06:43.509Z,98786.00
2022-11-01T17:09:15.264Z,98796.00
2022-11-01T17:11:51.749Z,98806.00
2022-11-01T17:14:22.284Z,98803.00
2022-11-01T17:16:53.466Z,98804.00
2022-11-01T17:19:25.879Z,98803.00
2022-11-01T17:21:56.066Z,98819.00
2022-11-01T17:24:27.858Z,98805.00
2022-11-01T17:27:01.121Z,98813.00
2022-11-01T17:29:31.651Z,98814.00
2022-11-01T17:32:03.049Z,98814.00
2022-11-01T17:34:35.970Z,98815.00
2022-11-01T17:37:06.479Z,98818.00
2022-11-01T17:39:36.605Z,98812.00
2022-11-01T17:42:09.153Z,98802.00
2022-11-01T17:44:39.262Z,98807.00
2022-11-01T17:47:09.345Z,98808.00
2022-11-01T17:49:39.191Z,98802.00
2022-11-01T17:52:09.036Z,98799.00
2022-11-01T17:54:39.160Z,98795.00
2022-11-01T17:57:12.911Z,98800.00
2022-11-01T17:59:42.833Z,98813.00
2022-11-01T18:02:13.195Z,98817.00
2022-11-01T18:04:43.155Z,98806.00
2022-11-01T18:07:14.234Z,98804.00
2022-11-01T18:09:44.152Z,98807.00
2022-11-01T18:12:21.197Z,98808.00
2022-11-01T18:14:56.117Z,98786.00
2022-11-01T18:17:46.593Z,98800.00
2022-11-01T18:20:25.582Z,98804.00
2022-11-01T18:22:57.668Z,98803.00
2022-11-01T18:25:31.270Z,98800.00
2022-11-01T18:28:04.593Z,98807.00
2022-11-01T18:30:34.721Z,98803.00
2022-11-01T18:33:07.309Z,98805.00
2022-11-01T18:35:40.565Z,98805.00
2022-11-01T18:38:18.701Z,98811.00
2022-11-01T18:40:59.386Z,98807.00
2022-11-01T18:43:34.402Z,98815.00
2022-11-01T18:46:23.871Z,98811.00
2022-11-01T18:49:00.298Z,98822.00
2022-11-01T18:51:32.529Z,98822.00
2022-11-01T18:54:13.814Z,98829.00
2022-11-01T18:56:44.291Z,98821.00
2022-11-01T18:59:23.262Z,98816.00
2022-11-01T19:01:54.901Z,98818.00
2022-11-01T19:04:27.834Z,98825.00
2022-11-01T19:06:59.546Z,98825.00
2022-11-01T19:09:30.663Z,98825.00
2022-11-01T19:12:03.350Z,98829.00
2022-11-01T19:14:35.836Z,98826.00
2022-11-01T19:17:06.392Z,98831.00
2022-11-01T19:19:37.558Z,98826.00
2022-11-01T19:22:27.266Z,98840.00
2022-11-01T19:24:57.329Z,98835.00
2022-11-01T19:27:27.625Z,98837.00
2022-11-01T19:30:00.588Z,98841.00
2022-11-01T19:32:30.492Z,98844.00
2022-11-01T19:35:00.596Z,98839.00
2022-11-01T19:37:34.891Z,98843.00
2022-11-01T19:40:10.254Z,98838.00
2022-11-01T19:42:40.139Z,98839.00
2022-11-01T19:45:33.076Z,98854.00
2022-11-01T19:48:04.984Z,98860.00
2022-11-01T19:50:40.549Z,98858.00
2022-11-01T19:53:20.315Z,98855.00
2022-11-01T19:55:53.898Z,98868.00
2022-11-01T19:58:32.284Z,98861.00
2022-11-01T20:01:34.218Z,98880.00
2022-11-01T20:04:05.826Z,98879.00
2022-11-01T20:06:38.192Z,98873.00
2022-11-01T20:09:12.484Z,98888.00
2022-11-01T20:11:42.433Z,98890.00
2022-11-01T20:14:14.135Z,98892.00
2022-11-01T20:16:46.650Z,98898.00
2022-11-01T20:19:17.800Z,98885.00
2022-11-01T20:21:48.178Z,98888.00
2022-11-01T20:24:18.371Z,98903.00
2022-11-01T20:26:48.341Z,98896.00
2022-11-01T20:29:18.228Z,98906.00
2022-11-01T20:31:50.981Z,98910.00
2022-11-01T20:34:20.849Z,98901.00
2022-11-01T20:37:14.947Z,98906.00
2022-11-01T20:39:40.642Z,98900.00
2022-11-01T20:42:10.952Z,98911.00
2022-11-01T20:44:40.887Z,98906.00
2022-11-01T20:47:14.635Z,98901.00
2022-11-01T20:49:44.517Z,98900.00
2022-11-01T20:52:38.122Z,98896.00
2022-11-01T20:55:04.224Z,98890.00
2022-11-01T20:57:34.108Z,98897.00
2022-11-01T21:00:04.202Z,98895.00
2022-11-01T21:02:36.685Z,98889.00
2022-11-01T21:05:15.560Z,98891.00
2022-11-01T21:07:47.995Z,98902.00
2022-11-01T21:10:37.648Z,98892.00
2022-11-01T21:13:21.583Z,98892.00
2022-11-01T21:15:51.972Z,98890.00
2022-11-01T21:18:46.422Z,98891.00
2022-11-01T21:21:35.139Z,98889.00
2022-11-01T21:24:29.677Z,98883.00
2022-11-01T21:30:04.733Z,98880.00
2022-11-01T21:32:42.577Z,98869.00
2022-11-01T21:35:38.807Z,98870.00
2022-11-01T21:38:30.399Z,98856.00
2022-11-01T21:41:00.330Z,98863.00
2022-11-01T21:43:35.284Z,98866.00
2022-11-01T21:46:05.171Z,98867.00
2022-11-01T21:48:36.074Z,98858.00
2022-11-01T21:51:08.984Z,98869.00
2022-11-01T21:53:38.827Z,98871.00
2022-11-01T21:56:09.547Z,98862.00
2022-11-01T21:58:39.419Z,98860.00
2022-11-01T22:01:09.476Z,98867.00
2022-11-01T22:03:39.457Z,98858.00
2022-11-01T22:06:12.036Z,98859.00
2022-11-01T22:08:41.921Z,98862.00
2022-11-01T22:11:11.770Z,98866.00
2022-11-01T22:13:41.660Z,98864.00
2022-11-01T22:16:12.110Z,98871.00
2022-11-01T22:18:41.948Z,98861.00
2022-11-01T22:21:14.400Z,98865.00
2022-11-01T22:23:44.287Z,98866.00
2022-11-01T22:26:14.479Z,98863.00
2022-11-01T22:28:44.336Z,98863.00
2022-11-01T22:31:14.290Z,98869.00
2022-11-01T22:33:48.229Z,98870.00
2022-11-01T22:36:25.208Z,98873.00
2022-11-01T22:38:58.485Z,98878.00
2022-11-01T22:41:33.155Z,98877.00
2022-11-01T22:44:07.068Z,98886.00
2022-11-01T22:46:45.797Z,98883.00
2022-11-01T22:49:19.433Z,98886.00
2022-11-01T22:51:53.427Z,98877.00
2022-11-01T22:54:32.131Z,98889.00
2022-11-01T22:57:05.078Z,98875.00
2022-11-01T22:59:36.537Z,98881.00
2022-11-01T23:02:24.967Z,98872.00
2022-11-01T23:04:59.882Z,98876.00
2022-11-01T23:07:35.883Z,98874.00
2022-11-01T23:10:10.797Z,98880.00
2022-11-01T23:12:53.097Z,98884.00
2022-11-01T23:15:29.788Z,98882.00
2022-11-01T23:18:05.000Z,98872.00
2022-11-01T23:20:34.842Z,98879.00
2022-11-01T23:23:07.596Z,98875.00
2022-11-01T23:25:37.620Z,98876.00
2022-11-01T23:28:07.732Z,98880.00
2022-11-01T23:30:37.631Z,98887.00
2022-11-01T23:33:08.561Z,98886.00
2022-11-01T23:35:38.495Z,98896.00
2022-11-01T23:38:19.496Z,98900.00
2022-11-01T23:40:49.447Z,98899.00
2022-11-01T23:43:24.056Z,98901.00
2022-11-01T23:45:54.629Z,98901.00
2022-11-01T23:48:25.906Z,98892.00
2022-11-01T23:50:56.368Z,98895.00
2022-11-01T23:53:32.721Z,98898.00
2022-11-01T23:56:03.615Z,98894.00
2022-11-01T23:58:34.685Z,98888.00
